Wetterdaten: Samstag, 22.01.2011
Datum Zeit Temp. A. Feuchte A. Luftdruck Regen Wind Richtung Richtung Sonnenschein UV Solar Windben
22.01.2011 00:00 0,1 C 91 % 1033,4 hPa 0,0 mm 0,0 km/h (0 Bft) W-SW 247 0 min 0 UV-I 0 W/m 3,2 km/h (1 Bft)
22.01.2011 00:10 0,1 C 91 % 1033,2 hPa 0,0 mm 0,0 km/h (0 Bft) W-SW 247 0 min 0 UV-I 0 W/m 1,6 km/h (1 Bft)
22.01.2011 00:20 0,2 C 91 % 1033,2 hPa 0,0 mm 0,0 km/h (0 Bft) W-SW 247 0 min 0 UV-I 0 W/m 3,2 km/h (1 Bft)
22.01.2011 00:30 0,2 C 91 % 1033,3 hPa 0,0 mm 0,0 km/h (0 Bft) W-SW 247 0 min 0 UV-I 0 W/m 1,6 km/h (1 Bft)
22.01.2011 00:40 0,2 C 91 % 1033,2 hPa 0,0 mm 0,0 km/h (0 Bft) W-SW 247 0 min 0 UV-I 0 W/m 1,6 km/h (1 Bft)
22.01.2011 00:50 0,2 C 91 % 1033,0 hPa 0,0 mm 0,0 km/h (0 Bft) W-SW 247 0 min 0 UV-I 0 W/m 3,2 km/h (1 Bft)
22.01.2011 01:00 0,2 C 91 % 1033,0 hPa 0,0 mm 0,0 km/h (0 Bft) W-SW 247 0 min 0 UV-I 0 W/m 3,2 km/h (1 Bft)
22.01.2011 01:10 0,2 C 91 % 1032,9 hPa 0,0 mm 0,0 km/h (0 Bft) N 0 0 min 0 UV-I 0 W/m 0,0 km/h (0 Bft)
22.01.2011 01:20 0,2 C 91 % 1032,8 hPa 0,0 mm 0,0 km/h (0 Bft) W-SW 247 0 min 0 UV-I 0 W/m 1,6 km/h (1 Bft)
22.01.2011 01:30 0,3 C 91 % 1032,5 hPa 0,0 mm 0,0 km/h (0 Bft) W-SW 247 0 min 0 UV-I 0 W/m 3,2 km/h (1 Bft)
22.01.2011 01:40 0,3 C 91 % 1032,6 hPa 0,0 mm 0,0 km/h (0 Bft) W-SW 247 0 min 0 UV-I 0 W/m 3,2 km/h (1 Bft)
22.01.2011 01:50 0,3 C 91 % 1032,6 hPa 0,0 mm 0,0 km/h (0 Bft) W-SW 247 0 min 0 UV-I 0 W/m 3,2 km/h (1 Bft)
22.01.2011 02:00 0,3 C 91 % 1032,7 hPa 0,0 mm 0,0 km/h (0 Bft) W-SW 247 0 min 0 UV-I 0 W/m 1,6 km/h (1 Bft)
22.01.2011 02:10 0,3 C 91 % 1032,6 hPa 0,0 mm 0,0 km/h (0 Bft) W-SW 247 0 min 0 UV-I 0 W/m 3,2 km/h (1 Bft)
22.01.2011 02:20 0,3 C 91 % 1032,5 hPa 0,0 mm 0,0 km/h (0 Bft) W-SW 247 0 min 0 UV-I 0 W/m 1,6 km/h (1 Bft)
22.01.2011 02:30 0,3 C 91 % 1032,6 hPa 0,0 mm 0,0 km/h (0 Bft) N 0 0 min 0 UV-I 0 W/m 0,0 km/h (0 Bft)
22.01.2011 02:40 0,3 C 91 % 1032,4 hPa 0,0 mm 0,0 km/h (0 Bft) W-SW 247 0 min 0 UV-I 0 W/m 1,6 km/h (1 Bft)
22.01.2011 02:50 0,3 C 91 % 1032,2 hPa 0,0 mm 0,0 km/h (0 Bft) W-SW 247 0 min 0 UV-I 0 W/m 1,6 km/h (1 Bft)
22.01.2011 03:00 0,3 C 91 % 1032,1 hPa 0,0 mm 0,0 km/h (0 Bft) W-SW 247 0 min 0 UV-I 0 W/m 3,2 km/h (1 Bft)
22.01.2011 03:10 0,3 C 92 % 1032,1 hPa 0,0 mm 0,0 km/h (0 Bft) W-SW 247 0 min 0 UV-I 0 W/m 1,6 km/h (1 Bft)
22.01.2011 03:20 0,3 C 92 % 1032,1 hPa 0,0 mm 0,0 km/h (0 Bft) W-SW 247 0 min 0 UV-I 0 W/m 3,2 km/h (1 Bft)
22.01.2011 03:30 0,3 C 92 % 1032,1 hPa 0,0 mm 0,0 km/h (0 Bft) W-SW 247 0 min 0 UV-I 0 W/m 1,6 km/h (1 Bft)
22.01.2011 03:40 0,3 C 92 % 1032,0 hPa 0,0 mm 0,0 km/h (0 Bft) W-SW 247 0 min 0 UV-I 0 W/m 3,2 km/h (1 Bft)
22.01.2011 03:50 0,3 C 92 % 1031,9 hPa 0,0 mm 0,0 km/h (0 Bft) W-SW 247 0 min 0 UV-I 0 W/m 1,6 km/h (1 Bft)
22.01.2011 04:00 0,3 C 92 % 1031,8 hPa 0,0 mm 0,0 km/h (0 Bft) W-SW 247 0 min 0 UV-I 0 W/m 1,6 km/h (1 Bft)
22.01.2011 04:10 0,3 C 92 % 1031,7 hPa 0,0 mm 0,0 km/h (0 Bft) W-SW 247 0 min 0 UV-I 0 W/m 1,6 km/h (1 Bft)
22.01.2011 04:20 0,3 C 91 % 1031,8 hPa 0,0 mm 0,0 km/h (0 Bft) W-SW 247 0 min 0 UV-I 0 W/m 1,6 km/h (1 Bft)
22.01.2011 04:30 0,3 C 91 % 1031,8 hPa 0,0 mm 0,0 km/h (0 Bft) W-SW 247 0 min 0 UV-I 0 W/m 1,6 km/h (1 Bft)
22.01.2011 04:40 0,3 C 91 % 1031,7 hPa 0,0 mm 0,0 km/h (0 Bft) W-SW 247 0 min 0 UV-I 0 W/m 1,6 km/h (1 Bft)
22.01.2011 04:50 0,3 C 92 % 1031,5 hPa 0,0 mm 0,0 km/h (0 Bft) W-SW 247 0 min 0 UV-I 0 W/m 1,6 km/h (1 Bft)
22.01.2011 05:00 0,3 C 92 % 1031,5 hPa 0,0 mm 0,0 km/h (0 Bft) W-SW 247 0 min 0 UV-I 0 W/m 1,6 km/h (1 Bft)
22.01.2011 05:10 0,3 C 92 % 1031,5 hPa 0,0 mm 0,0 km/h (0 Bft) W-SW 247 0 min 0 UV-I 0 W/m 1,6 km/h (1 Bft)
22.01.2011 05:20 0,3 C 92 % 1031,4 hPa 0,0 mm 0,0 km/h (0 Bft) W-SW 247 0 min 0 UV-I 0 W/m 1,6 km/h (1 Bft)
22.01.2011 05:30 0,3 C 92 % 1031,4 hPa 0,0 mm 0,0 km/h (0 Bft) N 0 0 min 0 UV-I 0 W/m 0,0 km/h (0 Bft)
22.01.2011 05:40 0,3 C 92 % 1031,3 hPa 0,0 mm 0,0 km/h (0 Bft) N 0 0 min 0 UV-I 0 W/m 0,0 km/h (0 Bft)
22.01.2011 05:50 0,3 C 92 % 1031,2 hPa 0,0 mm 0,0 km/h (0 Bft) W-SW 247 0 min 0 UV-I 0 W/m 1,6 km/h (1 Bft)
22.01.2011 06:00 0,3 C 92 % 1031,0 hPa 0,0 mm 0,0 km/h (0 Bft) W-SW 247 0 min 0 UV-I 0 W/m 3,2 km/h (1 Bft)
22.01.2011 06:10 0,3 C 92 % 1031,0 hPa 0,0 mm 0,0 km/h (0 Bft) W-SW 247 0 min 0 UV-I 0 W/m 3,2 km/h (1 Bft)
22.01.2011 06:20 0,4 C 92 % 1031,0 hPa 0,0 mm 0,0 km/h (0 Bft) W-SW 247 0 min 0 UV-I 0 W/m 1,6 km/h (1 Bft)
22.01.2011 06:30 0,4 C 92 % 1030,9 hPa 0,0 mm 0,0 km/h (0 Bft) W-SW 247 0 min 0 UV-I 0 W/m 1,6 km/h (1 Bft)
22.01.2011 06:40 0,4 C 92 % 1030,9 hPa 0,0 mm 0,0 km/h (0 Bft) W-SW 247 0 min 0 UV-I 0 W/m 3,2 km/h (1 Bft)
22.01.2011 06:50 0,4 C 92 % 1030,9 hPa 0,0 mm 0,0 km/h (0 Bft) W-SW 247 0 min 0 UV-I 0 W/m 1,6 km/h (1 Bft)
22.01.2011 07:00 0,4 C 92 % 1030,8 hPa 0,0 mm 0,0 km/h (0 Bft) W-SW 247 0 min 0 UV-I 0 W/m 1,6 km/h (1 Bft)
22.01.2011 07:10 0,4 C 92 % 1030,8 hPa 0,0 mm 0,0 km/h (0 Bft) W-SW 247 0 min 0 UV-I 0 W/m 1,6 km/h (1 Bft)
22.01.2011 07:20 0,4 C 92 % 1030,6 hPa 0,0 mm 0,0 km/h (0 Bft) N 0 0 min 0 UV-I 0 W/m 0,0 km/h (0 Bft)
22.01.2011 07:30 0,4 C 92 % 1030,6 hPa 0,0 mm 0,0 km/h (0 Bft) W-SW 247 0 min 0 UV-I 0 W/m 1,6 km/h (1 Bft)
22.01.2011 07:40 0,4 C 92 % 1030,4 hPa 0,0 mm 0,0 km/h (0 Bft) W-SW 247 0 min 0 UV-I 0 W/m 1,6 km/h (1 Bft)
22.01.2011 07:50 0,4 C 92 % 1030,3 hPa 0,0 mm 0,0 km/h (0 Bft) W-SW 247 0 min 0 UV-I 0 W/m 1,6 km/h (1 Bft)
22.01.2011 08:00 0,3 C 92 % 1030,3 hPa 0,0 mm 0,0 km/h (0 Bft) W-SW 251 0 min 0 UV-I 0 W/m 0,0 km/h (0 Bft)
22.01.2011 08:10 0,3 C 92 % 1030,3 hPa 0,0 mm 0,0 km/h (0 Bft) W-SW 247 0 min 0 UV-I 0 W/m 1,6 km/h (1 Bft)
22.01.2011 08:20 0,3 C 92 % 1030,3 hPa 0,0 mm 0,0 km/h (0 Bft) W-SW 247 0 min 0 UV-I 0 W/m 1,6 km/h (1 Bft)
22.01.2011 08:30 0,3 C 92 % 1030,3 hPa 0,0 mm 0,0 km/h (0 Bft) W-SW 247 0 min 0 UV-I 0 W/m 1,6 km/h (1 Bft)
22.01.2011 08:40 0,3 C 92 % 1030,4 hPa 0,0 mm 0,0 km/h (0 Bft) W-SW 247 0 min 0 UV-I 0 W/m 1,6 km/h (1 Bft)
22.01.2011 08:50 0,3 C 92 % 1030,4 hPa 0,0 mm 0,0 km/h (0 Bft) W-SW 247 0 min 0 UV-I 0 W/m 1,6 km/h (1 Bft)
22.01.2011 09:00 0,3 C 92 % 1030,3 hPa 0,0 mm 0,0 km/h (0 Bft) W-SW 247 0 min 0 UV-I 5 W/m 1,6 km/h (1 Bft)
22.01.2011 09:10 0,3 C 92 % 1030,3 hPa 0,0 mm 0,0 km/h (0 Bft) W-SW 247 0 min 0 UV-I 5 W/m 1,6 km/h (1 Bft)
22.01.2011 09:20 0,3 C 92 % 1030,3 hPa 0,0 mm 0,0 km/h (0 Bft) W-SW 247 0 min 0 UV-I 5 W/m 3,2 km/h (1 Bft)
22.01.2011 09:30 0,3 C 92 % 1030,3 hPa 0,0 mm 0,0 km/h (0 Bft) W-SW 247 0 min 0 UV-I 9 W/m 1,6 km/h (1 Bft)
22.01.2011 09:40 0,4 C 92 % 1030,3 hPa 0,0 mm 0,0 km/h (0 Bft) W-SW 247 0 min 0 UV-I 11 W/m 1,6 km/h (1 Bft)
22.01.2011 09:50 0,4 C 92 % 1030,4 hPa 0,0 mm 0,0 km/h (0 Bft) W-SW 247 0 min 0 UV-I 11 W/m 1,6 km/h (1 Bft)
22.01.2011 10:00 0,4 C 92 % 1030,4 hPa 0,0 mm 0,0 km/h (0 Bft) W-SW 247 0 min 0 UV-I 11 W/m 1,6 km/h (1 Bft)
22.01.2011 10:10 0,4 C 92 % 1030,4 hPa 0,0 mm 0,0 km/h (0 Bft) W-SW 247 0 min 0 UV-I 9 W/m 1,6 km/h (1 Bft)
22.01.2011 10:20 0,5 C 92 % 1030,4 hPa 0,0 mm 0,0 km/h (0 Bft) W-SW 247 0 min 0 UV-I 11 W/m 1,6 km/h (1 Bft)
22.01.2011 10:30 0,5 C 92 % 1030,6 hPa 0,0 mm 0,0 km/h (0 Bft) W-SW 250 0 min 0 UV-I 10 W/m 0,0 km/h (0 Bft)
22.01.2011 10:40 0,6 C 92 % 1030,6 hPa 0,0 mm 0,0 km/h (0 Bft) W-SW 250 0 min 0 UV-I 11 W/m 0,0 km/h (0 Bft)
22.01.2011 10:50 0,6 C 92 % 1030,6 hPa 0,0 mm 0,0 km/h (0 Bft) W-SW 250 0 min 0 UV-I 12 W/m 1,6 km/h (1 Bft)
22.01.2011 11:00 0,6 C 92 % 1030,5 hPa 0,0 mm 0,0 km/h (0 Bft) W-SW 250 0 min 0 UV-I 14 W/m 3,2 km/h (1 Bft)
22.01.2011 11:10 0,7 C 93 % 1030,4 hPa 0,0 mm 0,0 km/h (0 Bft) W-SW 250 0 min 0 UV-I 15 W/m 1,6 km/h (1 Bft)
22.01.2011 11:20 0,7 C 92 % 1030,5 hPa 0,0 mm 0,0 km/h (0 Bft) W-SW 250 0 min 0 UV-I 17 W/m 1,6 km/h (1 Bft)
22.01.2011 11:30 0,7 C 93 % 1030,4 hPa 0,0 mm 0,0 km/h (0 Bft) W-SW 250 0 min 0 UV-I 23 W/m 1,6 km/h (1 Bft)
22.01.2011 11:40 0,8 C 92 % 1030,4 hPa 0,0 mm 0,0 km/h (0 Bft) W-SW 250 0 min 0 UV-I 24 W/m 1,6 km/h (1 Bft)
22.01.2011 11:50 0,8 C 92 % 1030,3 hPa 0,0 mm 0,0 km/h (0 Bft) W-SW 250 0 min 0 UV-I 30 W/m 1,6 km/h (1 Bft)
22.01.2011 12:00 0,9 C 92 % 1030,2 hPa 0,0 mm 0,0 km/h (0 Bft) W-SW 250 0 min 0 UV-I 30 W/m 1,6 km/h (1 Bft)
22.01.2011 12:10 0,9 C 93 % 1030,1 hPa 0,0 mm 0,1 km/h (0 Bft) W-SW 250 0 min 0 UV-I 45 W/m 1,6 km/h (1 Bft)
22.01.2011 12:20 1,1 C 93 % 1030,1 hPa 0,0 mm 0,3 km/h (0 Bft) W-SW 248 0 min 0 UV-I 51 W/m 3,2 km/h (1 Bft)
22.01.2011 12:30 1,1 C 93 % 1030,1 hPa 0,0 mm 0,3 km/h (0 Bft) W-SW 242 0 min 0 UV-I 65 W/m 3,2 km/h (1 Bft)
22.01.2011 12:40 1,1 C 93 % 1030,0 hPa 0,0 mm 0,4 km/h (0 Bft) SO 138 0 min 0 UV-I 77 W/m 4,8 km/h (1 Bft)
22.01.2011 12:50 1,2 C 93 % 1030,0 hPa 0,0 mm 1,1 km/h (1 Bft) O-SO 118 0 min 0 UV-I 86 W/m 4,8 km/h (1 Bft)
22.01.2011 13:00 1,2 C 93 % 1029,7 hPa 0,0 mm 0,3 km/h (0 Bft) O-SO 120 0 min 0 UV-I 122 W/m 3,2 km/h (1 Bft)
22.01.2011 13:10 1,4 C 93 % 1029,6 hPa 0,0 mm 0,7 km/h (0 Bft) O-SO 119 0 min 1 UV-I 158 W/m 3,2 km/h (1 Bft)
22.01.2011 13:20 1,4 C 93 % 1029,6 hPa 0,0 mm 0,3 km/h (0 Bft) O-SO 120 0 min 1 UV-I 120 W/m 3,2 km/h (1 Bft)
22.01.2011 13:30 1,6 C 93 % 1029,6 hPa 0,0 mm 0,3 km/h (0 Bft) O-SO 119 0 min 0 UV-I 100 W/m 3,2 km/h (1 Bft)
22.01.2011 13:40 1,6 C 93 % 1029,5 hPa 0,0 mm 0,2 km/h (0 Bft) O-SO 119 0 min 0 UV-I 75 W/m 3,2 km/h (1 Bft)
22.01.2011 13:50 1,7 C 93 % 1029,4 hPa 0,5 mm 0,0 km/h (0 Bft) O-SO 120 0 min 0 UV-I 99 W/m 0,0 km/h (0 Bft)
22.01.2011 14:00 1,8 C 93 % 1029,4 hPa 0,3 mm 1,2 km/h (1 Bft) O-SO 120 0 min 0 UV-I 102 W/m 4,8 km/h (1 Bft)
22.01.2011 14:10 1,8 C 93 % 1029,3 hPa 0,3 mm 0,2 km/h (0 Bft) O-SO 120 0 min 0 UV-I 59 W/m 3,2 km/h (1 Bft)
22.01.2011 14:20 1,8 C 93 % 1029,2 hPa 0,0 mm 0,0 km/h (0 Bft) O-SO 120 0 min 0 UV-I 58 W/m 1,6 km/h (1 Bft)
22.01.2011 14:30 1,8 C 93 % 1029,2 hPa 0,3 mm 0,1 km/h (0 Bft) O-SO 120 0 min 0 UV-I 61 W/m 3,2 km/h (1 Bft)
22.01.2011 14:40 1,8 C 93 % 1029,3 hPa 0,0 mm 0,1 km/h (0 Bft) O-SO 119 0 min 0 UV-I 54 W/m 3,2 km/h (1 Bft)
22.01.2011 14:50 1,9 C 93 % 1029,3 hPa 0,3 mm 0,0 km/h (0 Bft) O-SO 120 0 min 0 UV-I 34 W/m 0,0 km/h (0 Bft)
22.01.2011 15:00 1,9 C 93 % 1029,2 hPa 0,0 mm 0,0 km/h (0 Bft) O-SO 119 0 min 0 UV-I 25 W/m 1,6 km/h (1 Bft)
22.01.2011 15:10 1,9 C 93 % 1029,2 hPa 0,0 mm 0,0 km/h (0 Bft) O-SO 120 0 min 0 UV-I 27 W/m 1,6 km/h (1 Bft)
22.01.2011 15:20 1,9 C 93 % 1029,1 hPa 0,3 mm 0,0 km/h (0 Bft) O-SO 119 0 min 0 UV-I 25 W/m 0,0 km/h (0 Bft)
22.01.2011 15:30 1,9 C 93 % 1029,1 hPa 0,0 mm 0,0 km/h (0 Bft) O-SO 120 0 min 0 UV-I 24 W/m 0,0 km/h (0 Bft)
22.01.2011 15:40 1,9 C 93 % 1029,1 hPa 0,0 mm 0,0 km/h (0 Bft) O-SO 119 0 min 0 UV-I 22 W/m 0,0 km/h (0 Bft)
22.01.2011 15:50 1,9 C 93 % 1029,2 hPa 0,0 mm 0,0 km/h (0 Bft) N 0 0 min 0 UV-I 23 W/m 0,0 km/h (0 Bft)
22.01.2011 16:00 1,9 C 93 % 1028,9 hPa 0,3 mm 0,0 km/h (0 Bft) O-SO 120 0 min 0 UV-I 24 W/m 0,0 km/h (0 Bft)
22.01.2011 16:10 1,9 C 93 % 1029,0 hPa 0,0 mm 0,0 km/h (0 Bft) N 0 0 min 0 UV-I 26 W/m 0,0 km/h (0 Bft)
22.01.2011 16:20 1,9 C 93 % 1029,0 hPa 0,0 mm 0,0 km/h (0 Bft) O-SO 112 0 min 0 UV-I 25 W/m 1,6 km/h (1 Bft)
22.01.2011 16:30 1,9 C 93 % 1029,0 hPa 0,0 mm 0,0 km/h (0 Bft) O-SO 112 0 min 0 UV-I 16 W/m 1,6 km/h (1 Bft)
22.01.2011 16:40 1,9 C 93 % 1029,0 hPa 0,0 mm 0,0 km/h (0 Bft) N 0 0 min 0 UV-I 11 W/m 0,0 km/h (0 Bft)
22.01.2011 16:50 1,9 C 93 % 1028,9 hPa 0,0 mm 0,0 km/h (0 Bft) N 0 0 min 0 UV-I 5 W/m 0,0 km/h (0 Bft)
22.01.2011 17:00 1,9 C 93 % 1028,8 hPa 0,0 mm 0,0 km/h (0 Bft) N 0 0 min 0 UV-I 0 W/m 0,0 km/h (0 Bft)
22.01.2011 17:10 1,9 C 93 % 1028,7 hPa 0,0 mm 0,0 km/h (0 Bft) N 0 0 min 0 UV-I 0 W/m 0,0 km/h (0 Bft)
22.01.2011 17:20 1,9 C 93 % 1028,9 hPa 0,3 mm 0,0 km/h (0 Bft) O-SO 112 0 min 0 UV-I 0 W/m 1,6 km/h (1 Bft)
22.01.2011 17:30 1,9 C 93 % 1029,0 hPa 0,0 mm 0,0 km/h (0 Bft) N 0 0 min 0 UV-I 0 W/m 0,0 km/h (0 Bft)
22.01.2011 17:40 1,9 C 93 % 1029,0 hPa 0,0 mm 0,0 km/h (0 Bft) O-SO 112 0 min 0 UV-I 0 W/m 3,2 km/h (1 Bft)
22.01.2011 17:50 1,8 C 93 % 1029,0 hPa 0,0 mm 0,0 km/h (0 Bft) O-SO 112 0 min 0 UV-I 0 W/m 1,6 km/h (1 Bft)
22.01.2011 18:00 1,8 C 93 % 1029,1 hPa 0,0 mm 0,0 km/h (0 Bft) O-SO 112 0 min 0 UV-I 0 W/m 1,6 km/h (1 Bft)
22.01.2011 18:10 1,8 C 93 % 1029,1 hPa 0,0 mm 0,0 km/h (0 Bft) O-SO 112 0 min 0 UV-I 0 W/m 3,2 km/h (1 Bft)
22.01.2011 18:20 1,8 C 93 % 1029,0 hPa 0,0 mm 1,6 km/h (1 Bft) O-SO 112 0 min 0 UV-I 0 W/m 3,2 km/h (1 Bft)
22.01.2011 18:30 1,8 C 93 % 1028,9 hPa 0,0 mm 0,0 km/h (0 Bft) O-SO 112 0 min 0 UV-I 0 W/m 3,2 km/h (1 Bft)
22.01.2011 18:40 1,7 C 93 % 1029,0 hPa 0,0 mm 0,0 km/h (0 Bft) O-SO 112 0 min 0 UV-I 0 W/m 3,2 km/h (1 Bft)
22.01.2011 18:50 1,7 C 93 % 1029,0 hPa 0,0 mm 0,0 km/h (0 Bft) O-SO 112 0 min 0 UV-I 0 W/m 1,6 km/h (1 Bft)
22.01.2011 19:00 1,7 C 93 % 1029,1 hPa 0,0 mm 0,0 km/h (0 Bft) O-SO 112 0 min 0 UV-I 0 W/m 3,2 km/h (1 Bft)
22.01.2011 19:10 1,7 C 93 % 1029,2 hPa 0,0 mm 0,0 km/h (0 Bft) O-SO 112 0 min 0 UV-I 0 W/m 3,2 km/h (1 Bft)
22.01.2011 19:20 1,7 C 93 % 1029,0 hPa 0,0 mm 0,0 km/h (0 Bft) O-SO 112 0 min 0 UV-I 0 W/m 1,6 km/h (1 Bft)
22.01.2011 19:30 1,6 C 93 % 1029,2 hPa 0,0 mm 0,0 km/h (0 Bft) N 0 0 min 0 UV-I 0 W/m 0,0 km/h (0 Bft)
22.01.2011 19:40 1,6 C 93 % 1029,1 hPa 0,0 mm 0,0 km/h (0 Bft) O-SO 112 0 min 0 UV-I 0 W/m 3,2 km/h (1 Bft)
22.01.2011 19:50 1,6 C 93 % 1029,0 hPa 0,0 mm 0,0 km/h (0 Bft) O-SO 112 0 min 0 UV-I 0 W/m 1,6 km/h (1 Bft)
22.01.2011 20:00 1,6 C 93 % 1028,9 hPa 0,0 mm 0,0 km/h (0 Bft) N 0 0 min 0 UV-I 0 W/m 0,0 km/h (0 Bft)
22.01.2011 20:10 1,6 C 93 % 1028,9 hPa 0,0 mm 0,0 km/h (0 Bft) N 0 0 min 0 UV-I 0 W/m 0,0 km/h (0 Bft)
22.01.2011 20:20 1,6 C 93 % 1028,7 hPa 0,0 mm 0,0 km/h (0 Bft) N 0 0 min 0 UV-I 0 W/m 0,0 km/h (0 Bft)
22.01.2011 20:30 1,6 C 93 % 1028,8 hPa 0,0 mm 0,0 km/h (0 Bft) N 0 0 min 0 UV-I 0 W/m 0,0 km/h (0 Bft)
22.01.2011 20:40 1,6 C 93 % 1028,9 hPa 0,0 mm 0,0 km/h (0 Bft) N 0 0 min 0 UV-I 0 W/m 0,0 km/h (0 Bft)
22.01.2011 20:50 1,6 C 93 % 1028,8 hPa 0,0 mm 0,0 km/h (0 Bft) N 0 0 min 0 UV-I 0 W/m 0,0 km/h (0 Bft)
22.01.2011 21:00 1,6 C 93 % 1028,6 hPa 0,3 mm 0,0 km/h (0 Bft) O-SO 112 0 min 0 UV-I 0 W/m 1,6 km/h (1 Bft)
22.01.2011 21:10 1,6 C 93 % 1028,6 hPa 0,0 mm 0,0 km/h (0 Bft) O-SO 112 0 min 0 UV-I 0 W/m 1,6 km/h (1 Bft)
22.01.2011 21:20 1,7 C 93 % 1028,6 hPa 0,0 mm 0,0 km/h (0 Bft) O-SO 112 0 min 0 UV-I 0 W/m 1,6 km/h (1 Bft)
22.01.2011 21:30 1,7 C 93 % 1028,6 hPa 0,0 mm 0,0 km/h (0 Bft) O-SO 112 0 min 0 UV-I 0 W/m 1,6 km/h (1 Bft)
22.01.2011 21:40 1,7 C 93 % 1028,5 hPa 0,0 mm 0,0 km/h (0 Bft) N 0 0 min 0 UV-I 0 W/m 0,0 km/h (0 Bft)
22.01.2011 21:50 1,8 C 93 % 1028,5 hPa 0,0 mm 0,0 km/h (0 Bft) N 0 0 min 0 UV-I 0 W/m 0,0 km/h (0 Bft)
22.01.2011 22:00 1,8 C 93 % 1028,4 hPa 0,0 mm 0,0 km/h (0 Bft) N 0 0 min 0 UV-I 0 W/m 0,0 km/h (0 Bft)
22.01.2011 22:10 1,8 C 93 % 1028,4 hPa 0,0 mm 0,0 km/h (0 Bft) N 0 0 min 0 UV-I 0 W/m 0,0 km/h (0 Bft)
22.01.2011 22:20 1,8 C 93 % 1028,5 hPa 0,0 mm 0,0 km/h (0 Bft) N 0 0 min 0 UV-I 0 W/m 0,0 km/h (0 Bft)
22.01.2011 22:30 1,8 C 93 % 1028,6 hPa 0,0 mm 0,0 km/h (0 Bft) N 0 0 min 0 UV-I 0 W/m 0,0 km/h (0 Bft)
22.01.2011 22:40 1,8 C 93 % 1028,5 hPa 0,0 mm 0,0 km/h (0 Bft) N 0 0 min 0 UV-I 0 W/m 0,0 km/h (0 Bft)
22.01.2011 22:50 1,8 C 93 % 1028,5 hPa 0,0 mm 0,0 km/h (0 Bft) N 0 0 min 0 UV-I 0 W/m 0,0 km/h (0 Bft)
22.01.2011 23:00 1,8 C 93 % 1028,6 hPa 0,0 mm 0,0 km/h (0 Bft) O-SO 112 0 min 0 UV-I 0 W/m 1,6 km/h (1 Bft)
22.01.2011 23:10 1,9 C 93 % 1028,5 hPa 0,0 mm 0,0 km/h (0 Bft) N 0 0 min 0 UV-I 0 W/m 0,0 km/h (0 Bft)
22.01.2011 23:20 1,9 C 93 % 1028,4 hPa 0,0 mm 0,0 km/h (0 Bft) N 0 0 min 0 UV-I 0 W/m 0,0 km/h (0 Bft)
22.01.2011 23:30 1,9 C 93 % 1028,3 hPa 0,0 mm 0,0 km/h (0 Bft) O-SO 112 0 min 0 UV-I 0 W/m 1,6 km/h (1 Bft)
22.01.2011 23:40 1,9 C 93 % 1028,4 hPa 0,0 mm 0,0 km/h (0 Bft) O-SO 112 0 min 0 UV-I 0 W/m 1,6 km/h (1 Bft)
22.01.2011 23:50 1,9 C 93 % 1028,4 hPa 0,0 mm 0,0 km/h (0 Bft) O-SO 112 0 min 0 UV-I 0 W/m 1,6 km/h (1 Bft)
_ Min-Zeit 00:00 00:00 23:30 - 00:00 - - - - - 01:10
Minimum _ 0,1 C 91 % 1028,3 hPa - 0,0 km/h (0 Bft) - - - - - 0,0 km/h (0 Bft)
_ Max-Zeit 23:50 11:10 00:00 13:50 18:20 - - 00:00 13:10 13:10 12:40
Maximum _ 2,0 C 93 % 1033,4 hPa 0,5 mm 1,6 km/h
O-SO (1 Bft)
- - 0 min 1 UV-I 158 W/m 4,8 km/h
S (1 Bft)
Durchschnitt _ 1,0 C 92 % 1030,2 hPa #2,5 mm 0,0 km/h (0 Bft) O-SO - #0 min. 0 UV-I 39 W/m 1,6 km/h (1 Bft)